sensor_id;sensor_type;location;lat;lon;timestamp;temperature;humidity
17307;DHT22;8771;48.048;7.682;2022-12-29T00:02:52;12.00;78.00
17307;DHT22;8771;48.048;7.682;2022-12-29T00:07:56;12.00;78.00
17307;DHT22;8771;48.048;7.682;2022-12-29T00:12:58;12.00;78.00
17307;DHT22;8771;48.048;7.682;2022-12-29T00:18:17;12.00;78.00
17307;DHT22;8771;48.048;7.682;2022-12-29T00:23:21;12.00;77.90
17307;DHT22;8771;48.048;7.682;2022-12-29T00:28:41;12.00;77.90
17307;DHT22;8771;48.048;7.682;2022-12-29T00:34:00;12.00;77.90
17307;DHT22;8771;48.048;7.682;2022-12-29T00:39:21;12.00;77.80
17307;DHT22;8771;48.048;7.682;2022-12-29T00:44:41;12.00;77.70
17307;DHT22;8771;48.048;7.682;2022-12-29T00:49:42;12.10;77.70
17307;DHT22;8771;48.048;7.682;2022-12-29T00:54:46;12.10;77.60
17307;DHT22;8771;48.048;7.682;2022-12-29T00:59:47;12.10;77.50
17307;DHT22;8771;48.048;7.682;2022-12-29T01:04:50;12.10;77.40
17307;DHT22;8771;48.048;7.682;2022-12-29T01:09:54;12.20;77.40
17307;DHT22;8771;48.048;7.682;2022-12-29T01:15:15;12.20;77.30
17307;DHT22;8771;48.048;7.682;2022-12-29T01:20:17;12.20;77.30
17307;DHT22;8771;48.048;7.682;2022-12-29T01:25:21;12.20;77.20
17307;DHT22;8771;48.048;7.682;2022-12-29T01:30:23;12.20;77.20
17307;DHT22;8771;48.048;7.682;2022-12-29T01:35:25;12.20;77.30
17307;DHT22;8771;48.048;7.682;2022-12-29T01:40:28;12.20;77.30
17307;DHT22;8771;48.048;7.682;2022-12-29T01:45:30;12.20;77.30
17307;DHT22;8771;48.048;7.682;2022-12-29T01:50:33;12.20;77.20
17307;DHT22;8771;48.048;7.682;2022-12-29T01:55:43;12.20;77.10
17307;DHT22;8771;48.048;7.682;2022-12-29T02:00:46;12.20;77.10
17307;DHT22;8771;48.048;7.682;2022-12-29T02:05:52;12.20;77.10
17307;DHT22;8771;48.048;7.682;2022-12-29T02:10:58;12.20;77.10
17307;DHT22;8771;48.048;7.682;2022-12-29T02:16:08;12.20;77.10
17307;DHT22;8771;48.048;7.682;2022-12-29T02:21:45;12.20;77.10
17307;DHT22;8771;48.048;7.682;2022-12-29T02:27:09;12.20;77.10
17307;DHT22;8771;48.048;7.682;2022-12-29T02:32:21;12.20;77.10
17307;DHT22;8771;48.048;7.682;2022-12-29T02:37:33;12.30;77.10
17307;DHT22;8771;48.048;7.682;2022-12-29T02:42:46;12.20;77.20
17307;DHT22;8771;48.048;7.682;2022-12-29T02:47:56;12.20;77.30
17307;DHT22;8771;48.048;7.682;2022-12-29T02:53:01;12.20;77.20
17307;DHT22;8771;48.048;7.682;2022-12-29T02:58:16;12.20;77.20
17307;DHT22;8771;48.048;7.682;2022-12-29T03:03:26;12.20;77.30
17307;DHT22;8771;48.048;7.682;2022-12-29T03:08:39;12.20;77.30
17307;DHT22;8771;48.048;7.682;2022-12-29T03:13:49;12.10;77.30
17307;DHT22;8771;48.048;7.682;2022-12-29T03:19:16;12.10;77.30
17307;DHT22;8771;48.048;7.682;2022-12-29T03:24:24;12.10;77.20
17307;DHT22;8771;48.048;7.682;2022-12-29T03:29:31;12.10;77.30
17307;DHT22;8771;48.048;7.682;2022-12-29T03:34:36;12.10;77.30
17307;DHT22;8771;48.048;7.682;2022-12-29T03:39:39;12.10;77.30
17307;DHT22;8771;48.048;7.682;2022-12-29T03:44:43;12.10;77.30
17307;DHT22;8771;48.048;7.682;2022-12-29T03:49:46;12.10;77.40
17307;DHT22;8771;48.048;7.682;2022-12-29T03:54:49;12.10;77.40
17307;DHT22;8771;48.048;7.682;2022-12-29T03:59:51;12.10;77.40
17307;DHT22;8771;48.048;7.682;2022-12-29T04:04:54;12.10;77.40
17307;DHT22;8771;48.048;7.682;2022-12-29T04:09:56;12.10;77.40
17307;DHT22;8771;48.048;7.682;2022-12-29T04:14:58;12.10;77.40
17307;DHT22;8771;48.048;7.682;2022-12-29T04:20:01;12.10;77.50
17307;DHT22;8771;48.048;7.682;2022-12-29T04:25:17;12.10;77.60
17307;DHT22;8771;48.048;7.682;2022-12-29T04:30:19;12.10;77.70
17307;DHT22;8771;48.048;7.682;2022-12-29T04:35:22;12.00;77.70
17307;DHT22;8771;48.048;7.682;2022-12-29T04:40:24;12.00;77.80
17307;DHT22;8771;48.048;7.682;2022-12-29T04:45:26;12.00;77.90
17307;DHT22;8771;48.048;7.682;2022-12-29T04:50:30;12.00;77.90
17307;DHT22;8771;48.048;7.682;2022-12-29T04:55:32;12.00;77.90
17307;DHT22;8771;48.048;7.682;2022-12-29T05:00:34;11.90;77.90
17307;DHT22;8771;48.048;7.682;2022-12-29T05:05:38;12.00;77.90
17307;DHT22;8771;48.048;7.682;2022-12-29T05:10:40;12.00;77.70
17307;DHT22;8771;48.048;7.682;2022-12-29T05:15:47;12.10;77.70
17307;DHT22;8771;48.048;7.682;2022-12-29T05:20:50;12.10;77.70
17307;DHT22;8771;48.048;7.682;2022-12-29T05:25:52;12.10;77.70
17307;DHT22;8771;48.048;7.682;2022-12-29T05:30:54;12.10;77.70
17307;DHT22;8771;48.048;7.682;2022-12-29T05:36:03;12.10;77.70
17307;DHT22;8771;48.048;7.682;2022-12-29T05:41:05;12.10;77.70
17307;DHT22;8771;48.048;7.682;2022-12-29T05:46:07;12.20;77.70
17307;DHT22;8771;48.048;7.682;2022-12-29T05:51:11;12.20;77.80
17307;DHT22;8771;48.048;7.682;2022-12-29T05:56:12;12.20;77.70
17307;DHT22;8771;48.048;7.682;2022-12-29T06:01:14;12.20;77.70
17307;DHT22;8771;48.048;7.682;2022-12-29T06:06:18;12.20;77.70
17307;DHT22;8771;48.048;7.682;2022-12-29T06:11:19;12.10;77.80
17307;DHT22;8771;48.048;7.682;2022-12-29T06:16:21;12.10;77.90
17307;DHT22;8771;48.048;7.682;2022-12-29T06:21:25;12.00;77.90
17307;DHT22;8771;48.048;7.682;2022-12-29T06:26:27;12.00;78.00
17307;DHT22;8771;48.048;7.682;2022-12-29T06:31:28;12.00;78.10
17307;DHT22;8771;48.048;7.682;2022-12-29T06:36:32;11.90;78.00
17307;DHT22;8771;48.048;7.682;2022-12-29T06:41:34;11.90;78.20
17307;DHT22;8771;48.048;7.682;2022-12-29T06:46:36;11.80;78.20
17307;DHT22;8771;48.048;7.682;2022-12-29T06:51:39;11.80;78.20
17307;DHT22;8771;48.048;7.682;2022-12-29T06:56:41;11.80;78.30
17307;DHT22;8771;48.048;7.682;2022-12-29T07:01:43;11.80;78.20
17307;DHT22;8771;48.048;7.682;2022-12-29T07:06:46;11.80;78.20
17307;DHT22;8771;48.048;7.682;2022-12-29T07:11:48;11.90;78.10
17307;DHT22;8771;48.048;7.682;2022-12-29T07:16:50;11.90;78.00
17307;DHT22;8771;48.048;7.682;2022-12-29T07:21:55;11.90;78.70
17307;DHT22;8771;48.048;7.682;2022-12-29T07:26:57;12.00;78.00
17307;DHT22;8771;48.048;7.682;2022-12-29T07:31:59;12.00;77.90
17307;DHT22;8771;48.048;7.682;2022-12-29T07:37:02;12.00;77.90
17307;DHT22;8771;48.048;7.682;2022-12-29T07:42:04;12.00;77.90
17307;DHT22;8771;48.048;7.682;2022-12-29T07:47:06;12.00;77.80
17307;DHT22;8771;48.048;7.682;2022-12-29T07:52:09;12.00;77.70
17307;DHT22;8771;48.048;7.682;2022-12-29T07:57:11;12.00;77.70
17307;DHT22;8771;48.048;7.682;2022-12-29T08:02:13;12.00;77.70
17307;DHT22;8771;48.048;7.682;2022-12-29T08:07:16;12.00;77.70
17307;DHT22;8771;48.048;7.682;2022-12-29T08:12:18;12.00;77.70
17307;DHT22;8771;48.048;7.682;2022-12-29T08:17:20;12.00;77.60
17307;DHT22;8771;48.048;7.682;2022-12-29T08:22:24;12.10;77.60
17307;DHT22;8771;48.048;7.682;2022-12-29T08:27:26;12.10;77.40
17307;DHT22;8771;48.048;7.682;2022-12-29T08:32:28;12.10;77.40
17307;DHT22;8771;48.048;7.682;2022-12-29T08:37:32;12.20;77.40
17307;DHT22;8771;48.048;7.682;2022-12-29T08:42:33;12.20;77.30
17307;DHT22;8771;48.048;7.682;2022-12-29T08:47:36;12.30;77.10
17307;DHT22;8771;48.048;7.682;2022-12-29T08:52:39;12.50;77.00
17307;DHT22;8771;48.048;7.682;2022-12-29T08:57:42;12.60;76.80
17307;DHT22;8771;48.048;7.682;2022-12-29T09:02:43;12.70;76.70
17307;DHT22;8771;48.048;7.682;2022-12-29T09:07:47;12.80;76.70
17307;DHT22;8771;48.048;7.682;2022-12-29T09:12:49;12.90;76.70
17307;DHT22;8771;48.048;7.682;2022-12-29T09:17:51;12.90;76.60
17307;DHT22;8771;48.048;7.682;2022-12-29T09:22:54;13.00;76.50
17307;DHT22;8771;48.048;7.682;2022-12-29T09:27:56;13.10;76.40
17307;DHT22;8771;48.048;7.682;2022-12-29T09:32:58;13.30;76.40
17307;DHT22;8771;48.048;7.682;2022-12-29T09:38:01;13.50;76.20
17307;DHT22;8771;48.048;7.682;2022-12-29T09:43:22;13.70;75.90
17307;DHT22;8771;48.048;7.682;2022-12-29T09:48:30;13.90;75.80
17307;DHT22;8771;48.048;7.682;2022-12-29T09:53:37;14.20;75.40
17307;DHT22;8771;48.048;7.682;2022-12-29T09:58:42;14.40;75.30
17307;DHT22;8771;48.048;7.682;2022-12-29T10:03:47;14.60;75.20
17307;DHT22;8771;48.048;7.682;2022-12-29T10:08:57;14.70;75.20
17307;DHT22;8771;48.048;7.682;2022-12-29T10:14:13;14.80;75.30
17307;DHT22;8771;48.048;7.682;2022-12-29T10:19:34;14.80;75.40
17307;DHT22;8771;48.048;7.682;2022-12-29T10:24:40;14.90;75.50
17307;DHT22;8771;48.048;7.682;2022-12-29T10:29:46;15.00;75.50
17307;DHT22;8771;48.048;7.682;2022-12-29T10:34:53;15.00;75.50
17307;DHT22;8771;48.048;7.682;2022-12-29T10:39:58;15.10;75.50
17307;DHT22;8771;48.048;7.682;2022-12-29T10:45:00;15.10;75.60
17307;DHT22;8771;48.048;7.682;2022-12-29T10:50:03;15.10;75.70
17307;DHT22;8771;48.048;7.682;2022-12-29T10:55:13;15.00;75.80
17307;DHT22;8771;48.048;7.682;2022-12-29T11:00:18;15.00;76.10
17307;DHT22;8771;48.048;7.682;2022-12-29T11:05:25;14.90;76.30
17307;DHT22;8771;48.048;7.682;2022-12-29T11:10:37;14.90;76.40
17307;DHT22;8771;48.048;7.682;2022-12-29T11:15:42;14.80;76.40
17307;DHT22;8771;48.048;7.682;2022-12-29T11:20:45;14.80;76.40
17307;DHT22;8771;48.048;7.682;2022-12-29T11:26:13;14.80;76.50
17307;DHT22;8771;48.048;7.682;2022-12-29T11:31:16;14.80;76.60
17307;DHT22;8771;48.048;7.682;2022-12-29T11:36:20;14.80;76.60
17307;DHT22;8771;48.048;7.682;2022-12-29T11:41:28;14.90;76.40
17307;DHT22;8771;48.048;7.682;2022-12-29T11:46:33;14.90;76.20
17307;DHT22;8771;48.048;7.682;2022-12-29T11:51:42;15.00;76.20
17307;DHT22;8771;48.048;7.682;2022-12-29T11:56:46;15.10;76.10
17307;DHT22;8771;48.048;7.682;2022-12-29T12:01:49;15.30;75.80
17307;DHT22;8771;48.048;7.682;2022-12-29T12:06:59;15.50;75.60
17307;DHT22;8771;48.048;7.682;2022-12-29T12:12:04;15.70;75.60
17307;DHT22;8771;48.048;7.682;2022-12-29T12:17:13;15.90;75.20
17307;DHT22;8771;48.048;7.682;2022-12-29T12:22:19;16.10;75.10
17307;DHT22;8771;48.048;7.682;2022-12-29T12:27:28;16.20;75.10
17307;DHT22;8771;48.048;7.682;2022-12-29T12:32:39;16.20;75.10
17307;DHT22;8771;48.048;7.682;2022-12-29T12:37:56;16.30;75.20
17307;DHT22;8771;48.048;7.682;2022-12-29T12:43:20;16.30;75.30
17307;DHT22;8771;48.048;7.682;2022-12-29T12:48:52;16.30;75.40
17307;DHT22;8771;48.048;7.682;2022-12-29T12:54:10;16.30;75.40
17307;DHT22;8771;48.048;7.682;2022-12-29T12:59:33;16.30;75.50
17307;DHT22;8771;48.048;7.682;2022-12-29T13:04:56;16.20;75.60
17307;DHT22;8771;48.048;7.682;2022-12-29T13:10:16;16.20;75.90
17307;DHT22;8771;48.048;7.682;2022-12-29T13:15:35;16.20;75.80
17307;DHT22;8771;48.048;7.682;2022-12-29T13:20:43;16.20;75.90
17307;DHT22;8771;48.048;7.682;2022-12-29T13:25:51;16.20;75.90
17307;DHT22;8771;48.048;7.682;2022-12-29T13:31:02;16.20;75.80
17307;DHT22;8771;48.048;7.682;2022-12-29T13:36:09;16.20;75.90
17307;DHT22;8771;48.048;7.682;2022-12-29T13:41:19;16.20;75.90
17307;DHT22;8771;48.048;7.682;2022-12-29T13:46:26;16.20;75.90
17307;DHT22;8771;48.048;7.682;2022-12-29T13:51:29;16.20;76.00
17307;DHT22;8771;48.048;7.682;2022-12-29T13:56:37;16.20;76.60
17307;DHT22;8771;48.048;7.682;2022-12-29T14:01:46;16.30;75.90
17307;DHT22;8771;48.048;7.682;2022-12-29T14:06:59;16.30;75.90
17307;DHT22;8771;48.048;7.682;2022-12-29T14:12:19;16.20;75.90
17307;DHT22;8771;48.048;7.682;2022-12-29T14:17:22;16.10;76.10
17307;DHT22;8771;48.048;7.682;2022-12-29T14:22:26;16.10;76.10
17307;DHT22;8771;48.048;7.682;2022-12-29T14:28:02;16.00;76.20
17307;DHT22;8771;48.048;7.682;2022-12-29T14:33:18;15.90;76.40
17307;DHT22;8771;48.048;7.682;2022-12-29T14:38:29;15.80;76.40
17307;DHT22;8771;48.048;7.682;2022-12-29T14:43:32;15.70;76.50
17307;DHT22;8771;48.048;7.682;2022-12-29T14:48:38;15.60;76.50
17307;DHT22;8771;48.048;7.682;2022-12-29T14:53:44;15.50;76.60
17307;DHT22;8771;48.048;7.682;2022-12-29T14:58:50;15.40;76.70
17307;DHT22;8771;48.048;7.682;2022-12-29T15:03:58;15.30;76.70
17307;DHT22;8771;48.048;7.682;2022-12-29T15:09:06;15.20;76.80
17307;DHT22;8771;48.048;7.682;2022-12-29T15:14:31;15.10;76.90
17307;DHT22;8771;48.048;7.682;2022-12-29T15:19:35;15.00;77.00
17307;DHT22;8771;48.048;7.682;2022-12-29T15:24:41;14.80;77.00
17307;DHT22;8771;48.048;7.682;2022-12-29T15:29:44;14.70;77.00
17307;DHT22;8771;48.048;7.682;2022-12-29T15:34:51;14.70;78.00
17307;DHT22;8771;48.048;7.682;2022-12-29T15:39:54;14.50;77.20
17307;DHT22;8771;48.048;7.682;2022-12-29T15:44:56;14.40;77.30
17307;DHT22;8771;48.048;7.682;2022-12-29T15:50:03;14.30;78.00
17307;DHT22;8771;48.048;7.682;2022-12-29T15:55:09;14.30;77.40
17307;DHT22;8771;48.048;7.682;2022-12-29T16:00:23;14.20;77.40
17307;DHT22;8771;48.048;7.682;2022-12-29T16:05:33;14.10;77.40
17307;DHT22;8771;48.048;7.682;2022-12-29T16:10:37;14.00;77.40
17307;DHT22;8771;48.048;7.682;2022-12-29T16:15:41;13.90;77.50
17307;DHT22;8771;48.048;7.682;2022-12-29T16:20:47;13.80;77.90
17307;DHT22;8771;48.048;7.682;2022-12-29T16:25:50;13.70;77.60
17307;DHT22;8771;48.048;7.682;2022-12-29T16:30:59;13.60;77.70
17307;DHT22;8771;48.048;7.682;2022-12-29T16:36:30;13.60;77.70
17307;DHT22;8771;48.048;7.682;2022-12-29T16:41:32;13.50;77.70
17307;DHT22;8771;48.048;7.682;2022-12-29T16:46:34;13.50;77.70
17307;DHT22;8771;48.048;7.682;2022-12-29T16:51:38;13.40;77.70
17307;DHT22;8771;48.048;7.682;2022-12-29T16:56:44;13.40;78.40
17307;DHT22;8771;48.048;7.682;2022-12-29T17:01:46;13.40;77.60
17307;DHT22;8771;48.048;7.682;2022-12-29T17:06:50;13.40;77.60
17307;DHT22;8771;48.048;7.682;2022-12-29T17:11:54;13.40;77.60
17307;DHT22;8771;48.048;7.682;2022-12-29T17:16:56;13.40;77.70
17307;DHT22;8771;48.048;7.682;2022-12-29T17:21:59;13.30;77.60
17307;DHT22;8771;48.048;7.682;2022-12-29T17:27:03;13.30;77.50
17307;DHT22;8771;48.048;7.682;2022-12-29T17:32:09;13.30;77.60
17307;DHT22;8771;48.048;7.682;2022-12-29T17:37:28;13.30;77.60
17307;DHT22;8771;48.048;7.682;2022-12-29T17:42:36;13.20;77.60
17307;DHT22;8771;48.048;7.682;2022-12-29T17:47:39;13.20;77.70
17307;DHT22;8771;48.048;7.682;2022-12-29T17:52:43;13.20;77.70
17307;DHT22;8771;48.048;7.682;2022-12-29T17:57:48;13.20;77.70
17307;DHT22;8771;48.048;7.682;2022-12-29T18:02:50;13.20;77.70
17307;DHT22;8771;48.048;7.682;2022-12-29T18:07:55;13.10;77.70
17307;DHT22;8771;48.048;7.682;2022-12-29T18:12:59;13.10;77.80
17307;DHT22;8771;48.048;7.682;2022-12-29T18:18:08;13.10;77.80
17307;DHT22;8771;48.048;7.682;2022-12-29T18:23:18;13.00;77.80
17307;DHT22;8771;48.048;7.682;2022-12-29T18:28:20;13.00;77.90
17307;DHT22;8771;48.048;7.682;2022-12-29T18:33:23;13.00;77.90
17307;DHT22;8771;48.048;7.682;2022-12-29T18:38:27;13.00;77.90
17307;DHT22;8771;48.048;7.682;2022-12-29T18:43:30;13.00;77.90
17307;DHT22;8771;48.048;7.682;2022-12-29T18:48:32;13.00;78.60
17307;DHT22;8771;48.048;7.682;2022-12-29T18:53:35;13.00;77.90
17307;DHT22;8771;48.048;7.682;2022-12-29T18:58:37;13.00;77.90
17307;DHT22;8771;48.048;7.682;2022-12-29T19:03:39;13.00;77.90
17307;DHT22;8771;48.048;7.682;2022-12-29T19:08:43;13.00;77.80
17307;DHT22;8771;48.048;7.682;2022-12-29T19:13:45;13.00;77.90
17307;DHT22;8771;48.048;7.682;2022-12-29T19:18:47;13.00;78.60
17307;DHT22;8771;48.048;7.682;2022-12-29T19:23:50;13.00;78.00
17307;DHT22;8771;48.048;7.682;2022-12-29T19:28:52;13.00;78.00
17307;DHT22;8771;48.048;7.682;2022-12-29T19:33:54;12.90;78.00
17307;DHT22;8771;48.048;7.682;2022-12-29T19:38:57;12.90;78.00
17307;DHT22;8771;48.048;7.682;2022-12-29T19:44:00;12.90;78.10
17307;DHT22;8771;48.048;7.682;2022-12-29T19:49:02;12.80;78.10
17307;DHT22;8771;48.048;7.682;2022-12-29T19:54:05;12.80;78.20
17307;DHT22;8771;48.048;7.682;2022-12-29T19:59:07;12.70;78.30
17307;DHT22;8771;48.048;7.682;2022-12-29T20:04:09;12.70;78.40
17307;DHT22;8771;48.048;7.682;2022-12-29T20:09:12;12.70;78.40
17307;DHT22;8771;48.048;7.682;2022-12-29T20:14:14;12.60;78.40
17307;DHT22;8771;48.048;7.682;2022-12-29T20:19:16;12.60;78.50
17307;DHT22;8771;48.048;7.682;2022-12-29T20:24:19;12.50;78.40
17307;DHT22;8771;48.048;7.682;2022-12-29T20:29:21;12.20;78.70
17307;DHT22;8771;48.048;7.682;2022-12-29T20:34:23;12.00;79.00
17307;DHT22;8771;48.048;7.682;2022-12-29T20:39:27;11.90;79.90
17307;DHT22;8771;48.048;7.682;2022-12-29T20:44:31;11.80;79.20
17307;DHT22;8771;48.048;7.682;2022-12-29T20:49:33;11.80;79.30
17307;DHT22;8771;48.048;7.682;2022-12-29T20:54:37;11.80;79.30
17307;DHT22;8771;48.048;7.682;2022-12-29T20:59:40;11.80;79.30
17307;DHT22;8771;48.048;7.682;2022-12-29T21:04:42;11.80;79.20
17307;DHT22;8771;48.048;7.682;2022-12-29T21:09:48;11.80;79.10
17307;DHT22;8771;48.048;7.682;2022-12-29T21:14:49;11.80;79.10
17307;DHT22;8771;48.048;7.682;2022-12-29T21:19:51;11.80;79.10
17307;DHT22;8771;48.048;7.682;2022-12-29T21:25:00;11.80;79.20
17307;DHT22;8771;48.048;7.682;2022-12-29T21:30:02;11.70;79.30
17307;DHT22;8771;48.048;7.682;2022-12-29T21:35:05;11.70;79.30
17307;DHT22;8771;48.048;7.682;2022-12-29T21:40:09;11.60;79.30
17307;DHT22;8771;48.048;7.682;2022-12-29T21:45:11;11.60;79.40
17307;DHT22;8771;48.048;7.682;2022-12-29T21:50:25;11.60;79.40
17307;DHT22;8771;48.048;7.682;2022-12-29T21:55:28;11.50;80.20
17307;DHT22;8771;48.048;7.682;2022-12-29T22:00:30;11.40;79.60
17307;DHT22;8771;48.048;7.682;2022-12-29T22:05:50;11.30;79.80
17307;DHT22;8771;48.048;7.682;2022-12-29T22:11:11;11.30;79.80
17307;DHT22;8771;48.048;7.682;2022-12-29T22:16:30;11.20;79.80
17307;DHT22;8771;48.048;7.682;2022-12-29T22:21:32;11.20;79.90
17307;DHT22;8771;48.048;7.682;2022-12-29T22:26:35;11.30;79.90
17307;DHT22;8771;48.048;7.682;2022-12-29T22:31:37;11.30;79.80
17307;DHT22;8771;48.048;7.682;2022-12-29T22:36:39;11.30;79.80
17307;DHT22;8771;48.048;7.682;2022-12-29T22:41:42;11.40;79.70
17307;DHT22;8771;48.048;7.682;2022-12-29T22:46:44;11.40;79.70
17307;DHT22;8771;48.048;7.682;2022-12-29T22:51:46;11.40;79.70
17307;DHT22;8771;48.048;7.682;2022-12-29T22:56:49;11.40;79.70
17307;DHT22;8771;48.048;7.682;2022-12-29T23:01:51;11.40;79.80
17307;DHT22;8771;48.048;7.682;2022-12-29T23:06:53;11.30;79.80
17307;DHT22;8771;48.048;7.682;2022-12-29T23:11:56;11.30;79.80
17307;DHT22;8771;48.048;7.682;2022-12-29T23:16:58;11.30;80.00
17307;DHT22;8771;48.048;7.682;2022-12-29T23:22:00;11.30;80.00
17307;DHT22;8771;48.048;7.682;2022-12-29T23:27:03;11.20;80.00
17307;DHT22;8771;48.048;7.682;2022-12-29T23:32:05;11.10;80.00
17307;DHT22;8771;48.048;7.682;2022-12-29T23:37:07;11.10;80.10
17307;DHT22;8771;48.048;7.682;2022-12-29T23:42:10;11.10;80.00
17307;DHT22;8771;48.048;7.682;2022-12-29T23:47:12;11.10;80.10
17307;DHT22;8771;48.048;7.682;2022-12-29T23:52:14;11.00;80.00
17307;DHT22;8771;48.048;7.682;2022-12-29T23:57:18;11.00;80.00
